AirNav   Air Wisconsin pilot careers
 
 1125 users online  

07KY Blue Lick Airport
Louisville, Kentucky, USA

GOING TO LOUISVILLE?


FAA INFORMATION EFFECTIVE 24 MAY 2018

Location

FAA Identifier: 07KY
Lat/Long: 38-04-50.2410N / 085-41-35.8530W
38-04.837350N / 085-41.597550W
38.0806225 / -85.6932925
(estimated)
Elevation: 532 ft. / 162.2 m (surveyed)
Variation: 02W (1985)
From city: 9 miles SE of LOUISVILLE, KY
Time zone: UTC -4 (UTC -5 during Standard Time)
Zip code: 40229

Airport Operations

Airport use: Private use. Permission required prior to landing
Activation date: 09/1973
Control tower: no
ARTCC: INDIANAPOLIS CENTER
FSS: LOUISVILLE FLIGHT SERVICE STATION
Attendance: DAYLIGHT HOURS
Wind indicator: yes
Segmented circle: yes

Airport Communications

UNICOM: 122.8
WX ASOS at SDF (6 nm N): PHONE 502-367-1492
WX ASOS at LOU (9 nm N): 118.275 (502-473-0693)
WX AWOS-3 at JVY (17 nm N): 118.575 (812-246-1278)
WX AWOS-3 at BRY (18 nm SE): 119.925 (502-348-1867)

Nearby radio navigation aids

VOR radial/distance  VOR name  Freq  Var
IIUr255/5.6LOUISVILLE VORTAC114.8001E
BQMr193/9.1BOWMAN VOR/DME112.2004W
FTKr053/16.8FORT KNOX VOR/DME109.6001W
EWOr357/26.9NEW HOPE VOR/DME110.8001E
MYSr068/(28.4)MYSTIC VOR108.2001W
FFTr264/(37.5)FRANKFORT VOR109.4003W

 
NDB name  Hdg/Dist  Freq  Var  ID
LAANG220/4.841404WLK .-.. -.-
GODMAN064/15.339603WGOI --. --- ..

Airport Services

Parking: hangars
Airframe service: NONE
Powerplant service: NONE
Bottled oxygen: NONE
Bulk oxygen: NONE

Runway Information

Runway 11/29

Dimensions: 2000 x 100 ft. / 610 x 30 m
Surface: turf
RUNWAY 11  RUNWAY 29
Traffic pattern: rightleft
Markings: NSTD, in good conditionNSTD, in good condition
Obstructions: trees, 450 ft. from runway, 25:1 slope to cleartrees, 1000 ft. from runway, 20:1 slope to clear

Airport Ownership and Management from official FAA records

Ownership: Privately-owned
Owner: THOMAS H. JEAN
1432 HILLVIEW BLVD
HILLVIEW, KY 40229
Phone 502-957-5159
ARPT RELATED CORRESPONDENCE TO ARPT MGR ONLY.
Manager: THOMAS H. JEAN
1432 HILLVIEW BLVD
HILLVIEW, KY 40229
Phone 502-957-5159

Airport Operational Statistics

Aircraft based on the field: 15
Single engine airplanes: 15
    
Aircraft operations: avg 24/week *
98% local general aviation
2% transient general aviation
* for 12-month period ending 14 December 1979

Additional Remarks

PLINES 90FT FROM RWY 29

Instrument Procedures

There are no published instrument procedures at 07KY.

Some nearby airports with instrument procedures:

KSDF - Louisville International Airport-Standiford Field (6 nm N)
KLOU - Bowman Field Airport (9 nm N)
KFTK - Godman Army Airfield (17 nm SW)
KJVY - Clark Regional Airport (17 nm N)
KBRY - Samuels Field Airport (18 nm SE)
 
Loc | Ops | Rwys | IFR | FBO | Links
Com | Nav | Svcs | Stats | Notes

AirNav Hotels Sweepstakes
 
Area around 07KY (Blue Lick Airport)
 
Road maps at: MapQuest Bing Google
 
Aerial photo
WARNING: Photo may not be current or correct
Aerial photo of 07KY (Blue Lick Airport)
Do you have a better or more recent aerial photo of Blue Lick Airport that you would like to share? If so, please send us your photo.

 
Sectional chart

 
Airport distance calculator
Flying to Blue Lick Airport? Find the distance to fly.

From to 07KY

Sunrise and sunset
Times for 25-May-2018
 Local
(UTC-4)
 Zulu
(UTC)
Morning civil twilight05:5609:56
Sunrise06:2610:26
Sunset20:5300:53
Evening civil twilight21:2401:24

Current date and time
Zulu (UTC)  25-May-2018 21:30:09
Local (UTC-4)  25-May-2018 17:30:09
 
METAR
KSDF 
6nm N 
252056Z VRB06KT 10SM FEW070 BKN250 31/15 A2988 RMK AO2 SLP114 T03110150 56031
KLOU 
8nm N 
252053Z 18008KT 10SM CLR 31/16 A2989 RMK AO2 SLP114 T03060156 56032
KFTK 
18nm SW 
252056Z AUTO 19003KT 10SM CLR 30/14 A2990 RMK AO2 SLP122 T03010138 57029
KBRY 
18nm SE 
252115Z AUTO 25007KT 10SM CLR 30/16 A2989 RMK AO1
TAF
KSDF 
6nm N 
251720Z 2518/2624 21008KT P6SM SCT050 SCT250 FM260000 19005KT P6SM SCT050 BKN150 FM261500 20005KT P6SM BKN050 PROB30 2616/2622 4SM TSRA BR BKN040CB
KFTK 
18nm SW 
251700Z 2517/2623 VRB06KT 9999 FEW270 QNH2994INS BECMG 2612/2613 19009KT 9999 SCT010 BKN020 OVC060 QNH2987INS TEMPO 2617/2620 25012G18KT 6000 -TSRA OVC020CB TX31/2521Z TN16/2610Z
NOTAMs
Click for the latest NOTAMs
NOTAMs are issued by the DoD/FAA and will open in a separate window not controlled by AirNav.

 

 
 

Would you like to see your business listed on this page?

 If your business provides an interesting product or service to pilots, flight crews, aircraft, or users of the Blue Lick Airport, you should consider listing it here.  To start the listing process, click on the button below
 
Add a business
 

Other Pages about Blue Lick Airport

Update a link
 
Copyright © AirNav, LLC. All rights reserved. Privacy Policy  Contact